Monday, August 29, 2016
23:34 UTC
  |  Log In   |  Register Free
Airport Search:

Petaluma Municipal Airport
(KO69)

Petaluma Municipal Airport Diagram
No Airport Diagram Available

FAA data valid effective Jul 21 2016 - Sep 15 2016 (unless otherwise noted).

 
 
 
 
 
 
 
 
 
 
 
 
 
 
Current Aviation Weather for KO69

Weather Summary


The most recent METAR observation for O69 was updated at: 12:55 UTC
METAR for O69 is not available. Closest METAR is for
METAR

METAR KO69 292315Z 25010G15KT 230V290 10SM CLR 23/ A3004 RMK AO1

METAR KO69 292255Z 29010KT 270V330 10SM CLR 23/ A3005 RMK AO1

METAR KO69 292235Z 28010G15KT 10SM CLR 23/ A3006 RMK AO1

METAR KO69 292215Z 27010KT 10SM CLR 23/ A3006 RMK AO1

METAR KO69 292155Z 27013KT 10SM CLR 22/ A3007 RMK AO1

METAR KO69 292135Z 27011KT 10SM CLR 22/ A3007 RMK AO1

METAR KO69 292115Z 26010G16KT 10SM CLR 24/ A3007 RMK AO1

METAR KO69 292055Z 25009G14KT 10SM CLR 24/ A3008 RMK AO1

METAR KO69 292035Z 29010KT 10SM CLR 24/ A3008 RMK AO1

METAR KAPC 292254Z 23012KT 10SM CLR 27/13 A3000 RMK AO2 SLP149 T02670128 TSNO

METAR KCCR 292253Z 25010KT 10SM FEW250 29/10 A2999 RMK AO2 SLP142 T02890100

METAR KDVO 292315Z 25010G15KT 10SM CLR 24/12 A3001 RMK AO2

TAF for O69 is not available.
TAF

KSTS - TAF KSTS 291739Z 2918/3018 VRB04KT P6SM FEW007

KSTS - FM291900 17010KT P6SM SKC

KSTS - FM300500 VRB04KT P6SM SKC

KSTS - FM301400 VRB02KT 6SM BR SCT004

KSTS - FM301700 17008KT P6SM SKC =

KSUU - TAF KSUU 291904Z 2919/3101 24015G20KT 9999 FEW200 QNH2997INS

KSUU - TEMPO 2919/2923 24015G25KT

KSUU - BECMG 2922/2923 24020G30KT 9999 FEW200 QNH2989INS

KSUU - TEMPO 3006/3013 24025G35KT

KSUU - BECMG 3015/3016 24015G25KT 9999 FEW200 QNH2993INS

KSUU - BECMG 3017/3018 24012G18KT 9999 FEW200 QNH2981INS TX28/2923Z TN15/3013Z =

GlobalAir.com is loading additional information.
 Current Weather at O69
72.0 F° (22.0 C°)

West winds at 15.0 mph
Pressure:
30.07 in
Humidity:
%
Wind:
West at 15.0 mph
Dew Point:
Visibility:
10.00 mi
O69 NOAA Radar




Find All Airport Services Find A Hotel Find A Rental Car Find A Golf Course Find A Restaurant $100 Hamburger



Airport Weather Forecast for KO69

Translated METAR for KO69 (2315 UTC)
METAR:
KO69 292315Z AUTO Petaluma Municipal, Petaluma, CA (KO69). Aug 29, 2315Z, Automated. Wind from 250° at 10 knots with gusts to 15 knots variable 230° to 290°, 10 statute miles visibility, Clear Skies, Temperature 23°C, Dewpoint °C, Altimeter is 30.04. Remarks: automated station without precipitation discriminator
Conditions at:
KO69 (Petaluma Muni, CA) observed 2315 UTC 29 August 2016
Temperature:
72.0 F° (22.0 C°)
Dewpoint:
Pressure:
30.07 Hg
Winds:
not reported
Visibility:
10.00
Ceiling:
at least 12,000 feet AGL
Clouds:
not reported - refer to area weather report
Remarks:
site is un-manned

Translated TAF for TAF for O69 is not available. Refer to local area forecast.
FBO's on the Field
FBO Company Facility Photos Services Transportation Aviation Fuel Prices: Prices include tax
Catering Weather Repair Courtesy Rental Type 100LL JetA JetA+ MOGAS 8087
 
Petaluma Municipal Airport

Currently rated 5 by 1 person
FS:Shell
Last Updated: Aug-18
Login to update fuel prices
SS:
Contact Petaluma Municipal AirportMore FBO Information
 
Add another FBO Facility Photos Catering Weather Repair Courtesy Rental Type 100LL JetA JetA+ MOGAS 8087
Services Transportation Aviation Fuel Prices: Prices include tax


model-print
model-print
model-print
model-print